Главная страница
METAR-TAF:

METAR-TAF

Аэропорты :

Эрсилиу Лус

Флорианополис, Санта-Катарина, Бразилия

широта: 27-40S, долгота: 048-33W, высота над уровнем моря: 5 м

Текущие метеонаблюдения

Эта сводка был подготовлена 44 минут назад, в 06:00 UTC
Ветер 10 Узел от северо-западный
Температура 22°C
Влажность 78%
Давление 1019 hPa
Видимость 10 км и более
небольшая облачность на высоте 2400 фута
Рассеянная облачность на высоте 4000 фута

METAR: SBFL 100600Z 32010KT 9999 FEW024 BKN040 22/18 Q1019

Время: 04:44 (06:44 UTC)

Прогноз

Эта сводка был подготовлена 4 часа и 44 минут назад, в 02:00 UTC
Прогноз действительный с 10-го 06 UTC до 11-го 06 UTC
Ветер 8 Узел от северный
Видимость 10 км и более
Нет облачности ниже 1500 м, и нет кучево-дождевой облачности
изменения
С 10-го 12 UTC до 10-го 14 UTC
Ветер 13 Узел от северный
изменения
С 10-го 22 UTC до 10-го 24 UTC
Ветер 7 Узел от северный

TAF: SBFL 100200Z 1006/1106 35008KT CAVOK TN20/1008Z TX28/1018Z BECMG 1012/1014 01013KT BECMG 1022/1024 36007KT RMK PDW

Метеонаблюдения и прогнозы для более 4000 аэропортов (сводки METAR и TAF).

Имеющиеся станции представлены на карте желтыми и красными точками.

Чтобы увидеть название станции, наведите на нее мышь.

Затем щелкните, чтобы увидеть метеонаблюдения и метеопрогнозы.

Управление картой: чтобы увеличить масштаб, щелкните зеленые кнопки с черным крестиком; чтобы уменьшить масштаб, щелкните зеленую кнопку с тире; для просмотра соседних карт щелкайте зеленые стрелки.


METAR-TAF: